Grand Marais, MN (55604)

9:10 PM CST on December 05, 2016 (GMT -0600)
SundewTech | | Change Station
Active Advisory: Winter Weather Advisory

Elev 676 ft 47.75 °N, 90.34 °W | Updated 4 seconds ago

Light Snow
Light Snow
33.5 °F
Feels Like 30 °F
N
4.0
Wind Variable Wind from SW

Today
High -- | Low -- °F
--% Chance of Precip.
Yesterday
High -- | Low -- °F
Precip. -- in
Pressure 29.76 in
Visibility 2.0 miles
Clouds Mostly Cloudy 600 ft
Overcast 1400 ft
Windchill 30 °F
Dew Point 33 °F
Humidity 98%
Rainfall 0.00 in
Snow Depth Not available.
7:34 AM 4:09 PM
Waxing Crescent, 37% visible
METAR KCKC 060254Z AUTO 09008KT 2SM -SN BKN006 OVC014 M02/M04 A2976 RMK AO2
Pressure 29.76 in
Visibility 2.0 miles
Clouds Mostly Cloudy 600 ft
Overcast 1400 ft
Windchill 30 °F
Dew Point 33 °F
Humidity 98%
Rainfall 0.00 in
Snow Depth Not available.
7:34 AM 4:09 PM
Waxing Crescent, 37% visible
METAR KCKC 060254Z AUTO 09008KT 2SM -SN BKN006 OVC014 M02/M04 A2976 RMK AO2

10-Day Weather Forecast

Almanac

Astronomy

Dec. 05, 2016 Rise Set
Actual Time
Civil Twilight
Nautical Twilight
Astronomical Twilight
Moon
Length of Visible Light
Length of Day
Tomorrow will be .
, % of the Moon is Illuminated

Today's Extremes

State Highs State Lows

Community

WunderPhotos

Upload Photos

1,955,914 photos uploaded!

WunderBlog® & News

Nearby

Air Quality

  Air Quality AQ Index Pollutant
Not available.

Snow Depth

Station Depth Elevation

Earthquake Activity

City Distance Mag. Time & Date
Minimum magnitude displayed is 2.5.

Coastal Water Temperatures

Place Temperature

Stations

Nearby Weather Stations

Station Location Temp. Windchill Dew Point Humidity Wind Precip. Elev Updated Type
                   

Watches & Warnings

Winter Weather Advisory
Issued: 9:05 PM CST Dec. 5, 2016 – National Weather Service

... Winter Weather Advisory remains in effect until noon CST
Tuesday...

* timing... expect snow to continue... diminishing around noon
Tuesday.

* Precipitation rates... the heaviest snowfall rates will occur
between 6 am and noon Tuesday.

* Snow accumulations... 3 to 5 inches... with localized higher
amounts.

* Visibilities... look for reduced visibilities at times.

* Impacts... plan on slippery Road conditions... including during
the morning commute on Tuesday.

Precautionary/preparedness actions...

A Winter Weather Advisory for snow means periods of snow will
cause primarily travel difficulties. Be prepared for snow covered
roads and limited visibilities... and use caution while driving.
The latest Road conditions for the state you are calling from can
be obtained by calling 5 1 1.